sensor_id;sensor_type;location;lat;lon;timestamp;pressure;altitude;pressure_sealevel;temperature;humidity
10366;BME280;5229;41.820;23.490;2022-10-10T00:02:05;90721.81;;;13.76;57.88
10366;BME280;5229;41.820;23.490;2022-10-10T00:04:31;90730.84;;;13.70;58.35
10366;BME280;5229;41.820;23.490;2022-10-10T00:06:58;90728.09;;;13.66;58.67
10366;BME280;5229;41.820;23.490;2022-10-10T00:09:25;90736.50;;;13.63;58.61
10366;BME280;5229;41.820;23.490;2022-10-10T00:11:52;90729.59;;;13.59;58.21
10366;BME280;5229;41.820;23.490;2022-10-10T00:14:19;90733.28;;;13.58;58.26
10366;BME280;5229;41.820;23.490;2022-10-10T00:16:45;90731.88;;;13.52;58.97
10366;BME280;5229;41.820;23.490;2022-10-10T00:19:14;90731.41;;;13.50;58.84
10366;BME280;5229;41.820;23.490;2022-10-10T00:21:41;90736.75;;;13.45;59.29
10366;BME280;5229;41.820;23.490;2022-10-10T00:24:07;90733.22;;;13.41;59.33
10366;BME280;5229;41.820;23.490;2022-10-10T00:26:34;90735.38;;;13.39;58.97
10366;BME280;5229;41.820;23.490;2022-10-10T00:29:01;90732.28;;;13.37;59.38
10366;BME280;5229;41.820;23.490;2022-10-10T00:31:28;90729.22;;;13.35;59.27
10366;BME280;5229;41.820;23.490;2022-10-10T00:33:55;90728.47;;;13.34;59.07
10366;BME280;5229;41.820;23.490;2022-10-10T00:36:23;90721.69;;;13.33;59.32
10366;BME280;5229;41.820;23.490;2022-10-10T00:38:50;90723.06;;;13.31;59.58
10366;BME280;5229;41.820;23.490;2022-10-10T00:41:17;90720.00;;;13.29;60.18
10366;BME280;5229;41.820;23.490;2022-10-10T00:44:00;90729.50;;;13.25;60.38
10366;BME280;5229;41.820;23.490;2022-10-10T00:46:26;90730.72;;;13.27;59.56
10366;BME280;5229;41.820;23.490;2022-10-10T00:48:53;90725.81;;;13.26;60.35
10366;BME280;5229;41.820;23.490;2022-10-10T00:51:20;90735.47;;;13.25;59.67
10366;BME280;5229;41.820;23.490;2022-10-10T00:53:50;90732.09;;;13.25;59.64
10366;BME280;5229;41.820;23.490;2022-10-10T00:56:21;90731.31;;;13.24;59.76
10366;BME280;5229;41.820;23.490;2022-10-10T00:58:51;90729.50;;;13.25;59.68
10366;BME280;5229;41.820;23.490;2022-10-10T01:01:19;90728.13;;;13.27;59.60
10366;BME280;5229;41.820;23.490;2022-10-10T01:03:46;90731.78;;;13.26;59.76
10366;BME280;5229;41.820;23.490;2022-10-10T01:06:13;90722.59;;;13.20;59.51
10366;BME280;5229;41.820;23.490;2022-10-10T01:08:41;90725.31;;;13.15;60.11
10366;BME280;5229;41.820;23.490;2022-10-10T01:11:36;90723.44;;;13.07;60.82
10366;BME280;5229;41.820;23.490;2022-10-10T01:14:15;90728.94;;;13.06;60.11
10366;BME280;5229;41.820;23.490;2022-10-10T01:16:51;90731.84;;;13.04;60.96
10366;BME280;5229;41.820;23.490;2022-10-10T01:19:56;90739.28;;;12.97;60.74
10366;BME280;5229;41.820;23.490;2022-10-10T01:22:37;90734.84;;;12.98;60.05
10366;BME280;5229;41.820;23.490;2022-10-10T01:25:15;90739.50;;;13.01;61.33
10366;BME280;5229;41.820;23.490;2022-10-10T01:27:51;90735.81;;;13.02;60.68
10366;BME280;5229;41.820;23.490;2022-10-10T01:30:22;90731.69;;;13.01;60.29
10366;BME280;5229;41.820;23.490;2022-10-10T01:32:52;90734.28;;;13.01;60.74
10366;BME280;5229;41.820;23.490;2022-10-10T01:35:27;90734.59;;;12.99;60.92
10366;BME280;5229;41.820;23.490;2022-10-10T01:38:07;90736.41;;;12.99;60.55
10366;BME280;5229;41.820;23.490;2022-10-10T01:40:40;90731.22;;;12.99;60.87
10366;BME280;5229;41.820;23.490;2022-10-10T01:43:10;90726.56;;;12.96;60.72
10366;BME280;5229;41.820;23.490;2022-10-10T01:45:44;90733.94;;;12.94;60.84
10366;BME280;5229;41.820;23.490;2022-10-10T01:48:11;90726.41;;;12.92;61.05
10366;BME280;5229;41.820;23.490;2022-10-10T01:50:50;90729.91;;;12.88;61.48
10366;BME280;5229;41.820;23.490;2022-10-10T01:53:25;90732.50;;;12.88;61.91
10366;BME280;5229;41.820;23.490;2022-10-10T01:56:05;90733.09;;;12.85;61.88
10366;BME280;5229;41.820;23.490;2022-10-10T01:58:47;90735.53;;;12.81;62.04
10366;BME280;5229;41.820;23.490;2022-10-10T02:01:24;90736.28;;;12.82;61.55
10366;BME280;5229;41.820;23.490;2022-10-10T02:04:01;90730.63;;;12.80;62.08
10366;BME280;5229;41.820;23.490;2022-10-10T02:06:30;90731.09;;;12.82;61.94
10366;BME280;5229;41.820;23.490;2022-10-10T02:09:03;90730.63;;;12.80;62.13
10366;BME280;5229;41.820;23.490;2022-10-10T02:11:32;90733.69;;;12.82;61.63
10366;BME280;5229;41.820;23.490;2022-10-10T02:14:04;90732.66;;;12.83;62.38
10366;BME280;5229;41.820;23.490;2022-10-10T02:16:37;90740.91;;;12.85;61.44
10366;BME280;5229;41.820;23.490;2022-10-10T02:19:06;90741.84;;;12.89;61.45
10366;BME280;5229;41.820;23.490;2022-10-10T02:21:34;90741.53;;;12.90;61.55
10366;BME280;5229;41.820;23.490;2022-10-10T02:24:04;90745.28;;;12.98;62.26
10366;BME280;5229;41.820;23.490;2022-10-10T02:26:32;90746.53;;;13.00;61.68
10366;BME280;5229;41.820;23.490;2022-10-10T02:29:03;90741.03;;;13.02;61.89
10366;BME280;5229;41.820;23.490;2022-10-10T02:31:37;90745.16;;;13.03;61.74
10366;BME280;5229;41.820;23.490;2022-10-10T02:34:08;90751.94;;;13.04;61.77
10366;BME280;5229;41.820;23.490;2022-10-10T02:36:38;90750.38;;;13.03;61.98
10366;BME280;5229;41.820;23.490;2022-10-10T02:39:06;90741.03;;;13.02;61.28
10366;BME280;5229;41.820;23.490;2022-10-10T02:41:35;90746.22;;;13.02;62.09
10366;BME280;5229;41.820;23.490;2022-10-10T02:44:03;90750.66;;;13.01;61.62
10366;BME280;5229;41.820;23.490;2022-10-10T02:46:29;90753.06;;;12.98;61.49
10366;BME280;5229;41.820;23.490;2022-10-10T02:49:00;90752.16;;;12.94;61.85
10366;BME280;5229;41.820;23.490;2022-10-10T02:51:27;90755.34;;;12.91;61.79
10366;BME280;5229;41.820;23.490;2022-10-10T02:53:54;90755.94;;;12.88;61.97
10366;BME280;5229;41.820;23.490;2022-10-10T02:56:20;90760.19;;;12.84;61.77
10366;BME280;5229;41.820;23.490;2022-10-10T02:58:47;90764.47;;;12.80;62.05
10366;BME280;5229;41.820;23.490;2022-10-10T03:01:14;90764.75;;;12.78;62.76
10366;BME280;5229;41.820;23.490;2022-10-10T03:03:41;90767.66;;;12.77;61.79
10366;BME280;5229;41.820;23.490;2022-10-10T03:06:09;90767.47;;;12.73;62.22
10366;BME280;5229;41.820;23.490;2022-10-10T03:08:36;90761.81;;;12.71;62.08
10366;BME280;5229;41.820;23.490;2022-10-10T03:11:04;90772.50;;;12.70;62.79
10366;BME280;5229;41.820;23.490;2022-10-10T03:13:31;90770.78;;;12.65;62.31
10366;BME280;5229;41.820;23.490;2022-10-10T03:15:58;90776.28;;;12.64;63.14
10366;BME280;5229;41.820;23.490;2022-10-10T03:18:25;90771.66;;;12.61;63.27
10366;BME280;5229;41.820;23.490;2022-10-10T03:20:53;90768.13;;;12.57;62.81
10366;BME280;5229;41.820;23.490;2022-10-10T03:23:22;90771.81;;;12.56;62.89
10366;BME280;5229;41.820;23.490;2022-10-10T03:25:49;90771.31;;;12.54;62.61
10366;BME280;5229;41.820;23.490;2022-10-10T03:28:16;90771.94;;;12.51;63.11
10366;BME280;5229;41.820;23.490;2022-10-10T03:30:42;90766.53;;;12.47;63.52
10366;BME280;5229;41.820;23.490;2022-10-10T03:33:10;90767.13;;;12.44;63.85
10366;BME280;5229;41.820;23.490;2022-10-10T03:35:37;90775.06;;;12.39;63.12
10366;BME280;5229;41.820;23.490;2022-10-10T03:38:05;90774.28;;;12.39;63.79
10366;BME280;5229;41.820;23.490;2022-10-10T03:40:37;90780.53;;;12.38;63.38
10366;BME280;5229;41.820;23.490;2022-10-10T03:43:05;90768.72;;;12.32;63.60
10366;BME280;5229;41.820;23.490;2022-10-10T03:45:32;90779.19;;;12.40;63.63
10366;BME280;5229;41.820;23.490;2022-10-10T03:47:59;90779.66;;;12.42;62.77
10366;BME280;5229;41.820;23.490;2022-10-10T03:50:25;90776.78;;;12.44;63.73
10366;BME280;5229;41.820;23.490;2022-10-10T03:52:52;90777.53;;;12.44;63.05
10366;BME280;5229;41.820;23.490;2022-10-10T03:55:19;90775.22;;;12.43;63.73
10366;BME280;5229;41.820;23.490;2022-10-10T03:57:47;90775.81;;;12.40;63.62
10366;BME280;5229;41.820;23.490;2022-10-10T04:00:14;90772.56;;;12.34;63.45
10366;BME280;5229;41.820;23.490;2022-10-10T04:02:41;90779.13;;;12.32;63.80
10366;BME280;5229;41.820;23.490;2022-10-10T04:05:08;90776.06;;;12.30;63.53
10366;BME280;5229;41.820;23.490;2022-10-10T04:07:35;90776.63;;;12.27;62.88
10366;BME280;5229;41.820;23.490;2022-10-10T04:10:02;90779.53;;;12.25;63.37
10366;BME280;5229;41.820;23.490;2022-10-10T04:12:29;90778.75;;;12.25;63.79
10366;BME280;5229;41.820;23.490;2022-10-10T04:14:57;90785.03;;;12.24;63.39
10366;BME280;5229;41.820;23.490;2022-10-10T04:17:24;90786.09;;;12.23;63.54
10366;BME280;5229;41.820;23.490;2022-10-10T04:19:51;90786.09;;;12.23;63.46
10366;BME280;5229;41.820;23.490;2022-10-10T04:22:18;90787.13;;;12.22;63.39
10366;BME280;5229;41.820;23.490;2022-10-10T04:24:45;90783.78;;;12.21;63.45
10366;BME280;5229;41.820;23.490;2022-10-10T04:27:12;90788.19;;;12.21;63.88
10366;BME280;5229;41.820;23.490;2022-10-10T04:29:39;90789.72;;;12.22;63.95
10366;BME280;5229;41.820;23.490;2022-10-10T04:32:07;90793.13;;;12.22;63.66
10366;BME280;5229;41.820;23.490;2022-10-10T04:34:34;90792.53;;;12.25;63.77
10366;BME280;5229;41.820;23.490;2022-10-10T04:37:00;90786.25;;;12.26;63.76
10366;BME280;5229;41.820;23.490;2022-10-10T04:39:27;90789.63;;;12.27;64.02
10366;BME280;5229;41.820;23.490;2022-10-10T04:41:54;90787.03;;;12.27;63.94
10366;BME280;5229;41.820;23.490;2022-10-10T04:44:21;90786.47;;;12.30;64.60
10366;BME280;5229;41.820;23.490;2022-10-10T04:46:48;90786.91;;;12.32;63.83
10366;BME280;5229;41.820;23.490;2022-10-10T04:49:16;90788.16;;;12.34;63.84
10366;BME280;5229;41.820;23.490;2022-10-10T04:51:43;90793.56;;;12.38;63.47
10366;BME280;5229;41.820;23.490;2022-10-10T04:54:09;90794.00;;;12.40;63.82
10366;BME280;5229;41.820;23.490;2022-10-10T04:56:37;90798.16;;;12.41;63.71
10366;BME280;5229;41.820;23.490;2022-10-10T04:59:06;90785.16;;;12.41;64.68
10366;BME280;5229;41.820;23.490;2022-10-10T05:01:32;90787.75;;;12.41;64.35
10366;BME280;5229;41.820;23.490;2022-10-10T05:03:59;90787.47;;;12.42;64.08
10366;BME280;5229;41.820;23.490;2022-10-10T05:06:27;90795.16;;;12.47;63.57
10366;BME280;5229;41.820;23.490;2022-10-10T05:08:54;90791.19;;;12.50;64.24
10366;BME280;5229;41.820;23.490;2022-10-10T05:11:21;90790.00;;;12.56;63.37
10366;BME280;5229;41.820;23.490;2022-10-10T05:13:48;90795.94;;;12.70;64.22
10366;BME280;5229;41.820;23.490;2022-10-10T05:16:15;90798.94;;;12.85;63.84
10366;BME280;5229;41.820;23.490;2022-10-10T05:18:42;90800.13;;;13.01;62.81
10366;BME280;5229;41.820;23.490;2022-10-10T05:21:09;90801.31;;;13.17;62.63
10366;BME280;5229;41.820;23.490;2022-10-10T05:23:38;90797.41;;;13.37;62.36
10366;BME280;5229;41.820;23.490;2022-10-10T05:26:06;90799.50;;;13.57;62.39
10366;BME280;5229;41.820;23.490;2022-10-10T05:28:33;90810.75;;;13.74;61.81
10366;BME280;5229;41.820;23.490;2022-10-10T05:31:01;90805.53;;;14.22;60.83
10366;BME280;5229;41.820;23.490;2022-10-10T05:33:28;90810.91;;;14.94;59.77
10366;BME280;5229;41.820;23.490;2022-10-10T05:36:01;90818.25;;;15.80;57.98
10366;BME280;5229;41.820;23.490;2022-10-10T05:38:29;90821.47;;;17.05;55.04
10366;BME280;5229;41.820;23.490;2022-10-10T05:40:57;90822.78;;;18.85;51.21
10366;BME280;5229;41.820;23.490;2022-10-10T05:43:24;90830.09;;;20.48;47.70
10366;BME280;5229;41.820;23.490;2022-10-10T05:45:51;90834.44;;;20.91;46.45
10366;BME280;5229;41.820;23.490;2022-10-10T05:48:18;90837.16;;;21.13;46.00
10366;BME280;5229;41.820;23.490;2022-10-10T05:50:47;90837.47;;;21.46;44.93
10366;BME280;5229;41.820;23.490;2022-10-10T05:53:15;90838.72;;;22.13;44.07
10366;BME280;5229;41.820;23.490;2022-10-10T05:55:42;90839.50;;;22.84;42.41
10366;BME280;5229;41.820;23.490;2022-10-10T05:58:11;90850.38;;;23.32;41.39
10366;BME280;5229;41.820;23.490;2022-10-10T06:00:38;90852.28;;;24.34;39.66
10366;BME280;5229;41.820;23.490;2022-10-10T06:03:05;90855.44;;;25.58;37.42
10366;BME280;5229;41.820;23.490;2022-10-10T06:05:33;90848.19;;;26.76;35.86
10366;BME280;5229;41.820;23.490;2022-10-10T06:07:59;90848.81;;;27.64;34.00
10366;BME280;5229;41.820;23.490;2022-10-10T06:10:26;90856.16;;;28.36;32.64
10366;BME280;5229;41.820;23.490;2022-10-10T06:12:53;90863.34;;;29.04;31.61
10366;BME280;5229;41.820;23.490;2022-10-10T06:15:21;90859.47;;;29.12;31.23
10366;BME280;5229;41.820;23.490;2022-10-10T06:17:48;90859.53;;;29.05;31.06
10366;BME280;5229;41.820;23.490;2022-10-10T06:20:15;90868.53;;;28.70;31.29
10366;BME280;5229;41.820;23.490;2022-10-10T06:22:42;90867.66;;;28.84;31.49
10366;BME280;5229;41.820;23.490;2022-10-10T06:25:08;90867.69;;;29.31;30.13
10366;BME280;5229;41.820;23.490;2022-10-10T06:27:35;90872.88;;;29.05;30.35
10366;BME280;5229;41.820;23.490;2022-10-10T06:30:03;90872.13;;;28.39;31.28
10366;BME280;5229;41.820;23.490;2022-10-10T06:32:31;90870.81;;;27.92;31.81
10366;BME280;5229;41.820;23.490;2022-10-10T06:34:58;90873.16;;;27.83;31.66
10366;BME280;5229;41.820;23.490;2022-10-10T06:37:25;90873.41;;;28.13;31.43
10366;BME280;5229;41.820;23.490;2022-10-10T06:39:52;90873.78;;;28.81;30.66
10366;BME280;5229;41.820;23.490;2022-10-10T06:42:18;90882.56;;;29.73;29.31
10366;BME280;5229;41.820;23.490;2022-10-10T06:44:45;90882.13;;;30.75;28.25
10366;BME280;5229;41.820;23.490;2022-10-10T06:47:12;90881.56;;;31.60;26.80
10366;BME280;5229;41.820;23.490;2022-10-10T06:49:40;90881.72;;;32.34;26.04
10366;BME280;5229;41.820;23.490;2022-10-10T06:52:07;90896.66;;;32.90;25.77
10366;BME280;5229;41.820;23.490;2022-10-10T06:54:34;90889.31;;;33.43;24.44
10366;BME280;5229;41.820;23.490;2022-10-10T06:57:01;90898.69;;;33.99;23.75
10366;BME280;5229;41.820;23.490;2022-10-10T06:59:28;90890.03;;;34.48;23.39
10366;BME280;5229;41.820;23.490;2022-10-10T07:01:55;90902.22;;;34.94;22.61
10366;BME280;5229;41.820;23.490;2022-10-10T07:04:22;90902.41;;;34.87;22.90
10366;BME280;5229;41.820;23.490;2022-10-10T07:06:50;90903.88;;;34.06;23.08
10366;BME280;5229;41.820;23.490;2022-10-10T07:09:17;90903.03;;;33.48;23.63
10366;BME280;5229;41.820;23.490;2022-10-10T07:11:46;90893.25;;;32.70;23.89
10366;BME280;5229;41.820;23.490;2022-10-10T07:14:12;90884.84;;;31.67;24.77
10366;BME280;5229;41.820;23.490;2022-10-10T07:16:39;90885.16;;;30.47;26.04
10366;BME280;5229;41.820;23.490;2022-10-10T07:19:06;90885.59;;;29.34;27.35
10366;BME280;5229;41.820;23.490;2022-10-10T07:21:33;90881.25;;;28.42;28.46
10366;BME280;5229;41.820;23.490;2022-10-10T07:24:01;90885.34;;;27.70;29.07
10366;BME280;5229;41.820;23.490;2022-10-10T07:26:28;90884.66;;;27.45;29.30
10366;BME280;5229;41.820;23.490;2022-10-10T07:29:01;90885.28;;;27.98;28.92
10366;BME280;5229;41.820;23.490;2022-10-10T07:31:28;90876.69;;;28.39;28.38
10366;BME280;5229;41.820;23.490;2022-10-10T07:33:54;90884.09;;;28.10;28.81
10366;BME280;5229;41.820;23.490;2022-10-10T07:36:21;90879.28;;;27.66;28.99
10366;BME280;5229;41.820;23.490;2022-10-10T07:38:48;90874.78;;;27.14;30.01
10366;BME280;5229;41.820;23.490;2022-10-10T07:41:18;90871.00;;;26.73;30.16
10366;BME280;5229;41.820;23.490;2022-10-10T07:43:45;90870.13;;;26.24;31.19
10366;BME280;5229;41.820;23.490;2022-10-10T07:46:14;90875.28;;;25.78;31.59
10366;BME280;5229;41.820;23.490;2022-10-10T07:48:41;90878.16;;;25.41;31.82
10366;BME280;5229;41.820;23.490;2022-10-10T07:51:08;90871.84;;;25.09;32.35
10366;BME280;5229;41.820;23.490;2022-10-10T07:53:35;90874.75;;;24.90;32.82
10366;BME280;5229;41.820;23.490;2022-10-10T07:56:03;90883.03;;;24.82;32.94
10366;BME280;5229;41.820;23.490;2022-10-10T07:58:31;90874.97;;;24.68;32.99
10366;BME280;5229;41.820;23.490;2022-10-10T08:01:02;90866.75;;;24.43;33.44
10366;BME280;5229;41.820;23.490;2022-10-10T08:03:29;90863.41;;;24.10;33.77
10366;BME280;5229;41.820;23.490;2022-10-10T08:05:56;90860.34;;;23.75;34.30
10366;BME280;5229;41.820;23.490;2022-10-10T08:08:23;90863.44;;;23.47;35.18
10366;BME280;5229;41.820;23.490;2022-10-10T08:10:50;90862.47;;;23.33;35.32
10366;BME280;5229;41.820;23.490;2022-10-10T08:13:17;90853.47;;;23.11;35.69
10366;BME280;5229;41.820;23.490;2022-10-10T08:15:49;90852.47;;;22.93;36.30
10366;BME280;5229;41.820;23.490;2022-10-10T08:18:15;90860.94;;;22.79;36.69
10366;BME280;5229;41.820;23.490;2022-10-10T08:20:42;90856.28;;;22.69;37.06
10366;BME280;5229;41.820;23.490;2022-10-10T08:23:09;90858.16;;;22.69;37.21
10366;BME280;5229;41.820;23.490;2022-10-10T08:25:36;90851.69;;;22.66;37.47
10366;BME280;5229;41.820;23.490;2022-10-10T08:28:03;90857.81;;;22.70;37.50
10366;BME280;5229;41.820;23.490;2022-10-10T08:30:30;90850.25;;;22.72;37.60
10366;BME280;5229;41.820;23.490;2022-10-10T08:32:58;90854.03;;;22.71;37.61
10366;BME280;5229;41.820;23.490;2022-10-10T08:35:25;90858.56;;;22.71;37.80
10366;BME280;5229;41.820;23.490;2022-10-10T08:37:52;90862.75;;;22.72;38.25
10366;BME280;5229;41.820;23.490;2022-10-10T08:40:20;90862.66;;;22.68;37.76
10366;BME280;5229;41.820;23.490;2022-10-10T08:42:50;90856.31;;;22.73;38.19
10366;BME280;5229;41.820;23.490;2022-10-10T08:45:21;90856.88;;;22.85;37.96
10366;BME280;5229;41.820;23.490;2022-10-10T08:47:53;90855.94;;;22.97;37.99
10366;BME280;5229;41.820;23.490;2022-10-10T08:50:26;90856.81;;;23.05;37.89
10366;BME280;5229;41.820;23.490;2022-10-10T08:52:56;90857.38;;;23.21;37.68
10366;BME280;5229;41.820;23.490;2022-10-10T08:55:27;90866.66;;;23.34;37.96
10366;BME280;5229;41.820;23.490;2022-10-10T08:57:59;90862.66;;;23.47;37.85
10366;BME280;5229;41.820;23.490;2022-10-10T09:00:32;90856.06;;;23.63;37.51
10366;BME280;5229;41.820;23.490;2022-10-10T09:03:04;90860.03;;;23.80;37.36
10366;BME280;5229;41.820;23.490;2022-10-10T09:05:48;90866.31;;;23.98;36.86
10366;BME280;5229;41.820;23.490;2022-10-10T09:08:34;90865.69;;;24.11;36.21
10366;BME280;5229;41.820;23.490;2022-10-10T09:11:10;90870.34;;;24.25;36.12
10366;BME280;5229;41.820;23.490;2022-10-10T09:13:45;90866.31;;;24.38;36.18
10366;BME280;5229;41.820;23.490;2022-10-10T09:16:22;90882.00;;;24.53;36.17
10366;BME280;5229;41.820;23.490;2022-10-10T09:19:00;90868.59;;;24.76;35.59
10366;BME280;5229;41.820;23.490;2022-10-10T09:21:34;90872.84;;;24.91;35.27
10366;BME280;5229;41.820;23.490;2022-10-10T09:24:08;90874.78;;;24.94;35.24
10366;BME280;5229;41.820;23.490;2022-10-10T09:26:39;90874.03;;;24.97;35.12
10366;BME280;5229;41.820;23.490;2022-10-10T09:29:24;90883.09;;;24.89;35.91
10366;BME280;5229;41.820;23.490;2022-10-10T09:31:57;90882.28;;;24.81;35.33
10366;BME280;5229;41.820;23.490;2022-10-10T09:34:30;90880.34;;;24.75;35.70
10366;BME280;5229;41.820;23.490;2022-10-10T09:37:03;90881.13;;;24.79;35.64
10366;BME280;5229;41.820;23.490;2022-10-10T09:39:36;90879.69;;;24.92;35.58
10366;BME280;5229;41.820;23.490;2022-10-10T09:42:09;90877.91;;;25.06;35.67
10366;BME280;5229;41.820;23.490;2022-10-10T09:44:37;90883.34;;;25.24;35.38
10366;BME280;5229;41.820;23.490;2022-10-10T09:47:04;90878.13;;;25.38;35.37
10366;BME280;5229;41.820;23.490;2022-10-10T09:49:32;90876.66;;;25.51;35.34
10366;BME280;5229;41.820;23.490;2022-10-10T09:52:16;90877.88;;;25.64;34.41
10366;BME280;5229;41.820;23.490;2022-10-10T09:54:47;90869.19;;;25.78;34.60
10366;BME280;5229;41.820;23.490;2022-10-10T09:57:15;90880.63;;;25.85;34.29
10366;BME280;5229;41.820;23.490;2022-10-10T09:59:45;90880.63;;;25.85;34.60
10366;BME280;5229;41.820;23.490;2022-10-10T10:02:14;90876.47;;;25.84;34.05
10366;BME280;5229;41.820;23.490;2022-10-10T10:04:42;90870.00;;;25.89;34.43
10366;BME280;5229;41.820;23.490;2022-10-10T10:07:27;90865.84;;;25.91;34.31
10366;BME280;5229;41.820;23.490;2022-10-10T10:09:56;90860.22;;;26.10;34.30
10366;BME280;5229;41.820;23.490;2022-10-10T10:12:26;90865.22;;;26.36;33.48
10366;BME280;5229;41.820;23.490;2022-10-10T10:14:59;90868.66;;;26.47;33.23
10366;BME280;5229;41.820;23.490;2022-10-10T10:17:27;90861.09;;;26.63;33.21
10366;BME280;5229;41.820;23.490;2022-10-10T10:19:54;90854.28;;;26.83;33.24
10366;BME280;5229;41.820;23.490;2022-10-10T10:22:25;90864.94;;;26.90;32.62
10366;BME280;5229;41.820;23.490;2022-10-10T10:24:52;90863.38;;;26.82;32.97
10366;BME280;5229;41.820;23.490;2022-10-10T10:27:21;90869.84;;;26.67;33.17
10366;BME280;5229;41.820;23.490;2022-10-10T10:29:50;90862.56;;;26.50;33.67
10366;BME280;5229;41.820;23.490;2022-10-10T10:32:31;90862.56;;;26.33;33.36
10366;BME280;5229;41.820;23.490;2022-10-10T10:35:08;90854.16;;;26.17;33.52
10366;BME280;5229;41.820;23.490;2022-10-10T10:37:49;90854.13;;;25.99;33.74
10366;BME280;5229;41.820;23.490;2022-10-10T10:40:27;90856.72;;;25.92;34.29
10366;BME280;5229;41.820;23.490;2022-10-10T10:43:11;90852.53;;;25.88;34.27
10366;BME280;5229;41.820;23.490;2022-10-10T10:45:49;90852.13;;;25.82;34.71
10366;BME280;5229;41.820;23.490;2022-10-10T10:48:26;90843.72;;;25.66;34.47
10366;BME280;5229;41.820;23.490;2022-10-10T10:50:54;90837.97;;;25.53;34.67
10366;BME280;5229;41.820;23.490;2022-10-10T10:53:30;90839.84;;;25.46;35.19
10366;BME280;5229;41.820;23.490;2022-10-10T10:56:12;90833.31;;;25.33;35.03
10366;BME280;5229;41.820;23.490;2022-10-10T10:58:55;90829.03;;;25.18;35.25
10366;BME280;5229;41.820;23.490;2022-10-10T11:01:25;90821.41;;;25.13;35.14
10366;BME280;5229;41.820;23.490;2022-10-10T11:03:59;90817.56;;;25.00;35.20
10366;BME280;5229;41.820;23.490;2022-10-10T11:06:37;90821.66;;;24.87;35.41
10366;BME280;5229;41.820;23.490;2022-10-10T11:09:13;90820.09;;;24.82;35.70
10366;BME280;5229;41.820;23.490;2022-10-10T11:11:58;90804.09;;;24.72;35.76
10366;BME280;5229;41.820;23.490;2022-10-10T11:14:40;90807.84;;;24.64;35.98
10366;BME280;5229;41.820;23.490;2022-10-10T11:17:13;90800.91;;;24.56;36.25
10366;BME280;5229;41.820;23.490;2022-10-10T11:19:49;90798.56;;;24.44;36.76
10366;BME280;5229;41.820;23.490;2022-10-10T11:22:25;90797.72;;;24.33;36.93
10366;BME280;5229;41.820;23.490;2022-10-10T11:25:00;90796.53;;;24.27;37.11
10366;BME280;5229;41.820;23.490;2022-10-10T11:27:32;90794.59;;;24.20;37.20
10366;BME280;5229;41.820;23.490;2022-10-10T11:30:11;90792.66;;;24.17;37.29
10366;BME280;5229;41.820;23.490;2022-10-10T11:32:45;90788.06;;;24.11;37.60
10366;BME280;5229;41.820;23.490;2022-10-10T11:35:32;90786.44;;;23.99;37.68
10366;BME280;5229;41.820;23.490;2022-10-10T11:38:05;90780.00;;;23.97;37.61
10366;BME280;5229;41.820;23.490;2022-10-10T11:40:44;90777.25;;;23.90;37.96
10366;BME280;5229;41.820;23.490;2022-10-10T11:43:20;90781.41;;;23.91;38.09
10366;BME280;5229;41.820;23.490;2022-10-10T11:45:55;90778.75;;;23.91;38.10
10366;BME280;5229;41.820;23.490;2022-10-10T11:48:28;90772.69;;;23.87;38.22
10366;BME280;5229;41.820;23.490;2022-10-10T11:51:04;90773.78;;;23.86;38.20
10366;BME280;5229;41.820;23.490;2022-10-10T11:53:36;90767.25;;;23.76;38.56
10366;BME280;5229;41.820;23.490;2022-10-10T11:56:13;90764.09;;;23.64;38.64
10366;BME280;5229;41.820;23.490;2022-10-10T11:58:45;90766.66;;;23.53;38.95
10366;BME280;5229;41.820;23.490;2022-10-10T12:01:18;90760.94;;;23.48;38.79
10366;BME280;5229;41.820;23.490;2022-10-10T12:03:49;90759.78;;;23.49;38.90
10366;BME280;5229;41.820;23.490;2022-10-10T12:06:22;90761.31;;;23.50;38.86
10366;BME280;5229;41.820;23.490;2022-10-10T12:08:56;90752.25;;;23.51;38.92
10366;BME280;5229;41.820;23.490;2022-10-10T12:11:29;90757.50;;;23.47;38.71
10366;BME280;5229;41.820;23.490;2022-10-10T12:13:58;90744.16;;;23.37;38.92
10366;BME280;5229;41.820;23.490;2022-10-10T12:16:28;90750.13;;;23.30;38.92
10366;BME280;5229;41.820;23.490;2022-10-10T12:19:00;90744.25;;;23.14;39.18
10366;BME280;5229;41.820;23.490;2022-10-10T12:21:28;90735.78;;;23.02;39.43
10366;BME280;5229;41.820;23.490;2022-10-10T12:24:00;90739.88;;;22.96;39.61
10366;BME280;5229;41.820;23.490;2022-10-10T12:29:43;90743.13;;;22.85;39.95
10366;BME280;5229;41.820;23.490;2022-10-10T12:32:25;90734.03;;;22.83;40.09
10366;BME280;5229;41.820;23.490;2022-10-10T12:34:58;90745.41;;;22.83;39.93
10366;BME280;5229;41.820;23.490;2022-10-10T12:37:26;90746.09;;;22.80;39.83
10366;BME280;5229;41.820;23.490;2022-10-10T12:40:19;90745.25;;;22.73;40.22
10366;BME280;5229;41.820;23.490;2022-10-10T12:43:18;90749.41;;;22.74;40.28
10366;BME280;5229;41.820;23.490;2022-10-10T12:46:18;90754.25;;;22.68;40.29
10366;BME280;5229;41.820;23.490;2022-10-10T12:48:57;90747.50;;;22.71;40.42
10366;BME280;5229;41.820;23.490;2022-10-10T12:51:25;90747.53;;;22.74;40.92
10366;BME280;5229;41.820;23.490;2022-10-10T12:53:55;90748.31;;;22.75;40.88
10366;BME280;5229;41.820;23.490;2022-10-10T12:56:34;90747.13;;;22.72;40.98
10366;BME280;5229;41.820;23.490;2022-10-10T12:59:02;90752.03;;;22.74;40.69
10366;BME280;5229;41.820;23.490;2022-10-10T13:01:34;90746.00;;;22.73;40.83
10366;BME280;5229;41.820;23.490;2022-10-10T13:04:02;90745.59;;;22.71;40.92
10366;BME280;5229;41.820;23.490;2022-10-10T13:06:33;90741.38;;;22.67;40.98
10366;BME280;5229;41.820;23.490;2022-10-10T13:09:06;90747.44;;;22.67;40.87
10366;BME280;5229;41.820;23.490;2022-10-10T13:11:49;90745.81;;;22.59;40.72
10366;BME280;5229;41.820;23.490;2022-10-10T13:14:16;90742.00;;;22.57;40.74
10366;BME280;5229;41.820;23.490;2022-10-10T13:16:44;90739.66;;;22.52;40.65
10366;BME280;5229;41.820;23.490;2022-10-10T13:19:17;90738.06;;;22.47;40.91
10366;BME280;5229;41.820;23.490;2022-10-10T13:21:45;90738.06;;;22.47;41.34